sensor_id;sensor_type;location;lat;lon;timestamp;P1;durP1;ratioP1;P2;durP2;ratioP2
35693;SDS011;21812;55.536;37.664;2024-01-10T00:02:06;2.60;;;1.67;;
35693;SDS011;21812;55.536;37.664;2024-01-10T00:04:31;2.80;;;2.20;;
35693;SDS011;21812;55.536;37.664;2024-01-10T00:06:57;1.17;;;1.00;;
35693;SDS011;21812;55.536;37.664;2024-01-10T00:09:23;2.23;;;1.53;;
35693;SDS011;21812;55.536;37.664;2024-01-10T00:11:49;2.63;;;1.80;;
35693;SDS011;21812;55.536;37.664;2024-01-10T00:14:14;2.13;;;1.37;;
35693;SDS011;21812;55.536;37.664;2024-01-10T00:16:41;1.67;;;1.23;;
35693;SDS011;21812;55.536;37.664;2024-01-10T00:19:07;1.13;;;1.03;;
35693;SDS011;21812;55.536;37.664;2024-01-10T00:21:33;1.93;;;1.30;;
35693;SDS011;21812;55.536;37.664;2024-01-10T00:24:00;2.23;;;1.20;;
35693;SDS011;21812;55.536;37.664;2024-01-10T00:26:26;1.60;;;1.03;;
35693;SDS011;21812;55.536;37.664;2024-01-10T00:28:52;1.17;;;0.87;;
35693;SDS011;21812;55.536;37.664;2024-01-10T00:31:17;2.23;;;1.17;;
35693;SDS011;21812;55.536;37.664;2024-01-10T00:33:43;1.63;;;1.20;;
35693;SDS011;21812;55.536;37.664;2024-01-10T00:36:09;0.90;;;0.60;;
35693;SDS011;21812;55.536;37.664;2024-01-10T00:38:36;0.83;;;0.77;;
35693;SDS011;21812;55.536;37.664;2024-01-10T00:41:02;1.23;;;1.00;;
35693;SDS011;21812;55.536;37.664;2024-01-10T00:43:28;1.90;;;0.77;;
35693;SDS011;21812;55.536;37.664;2024-01-10T00:45:53;0.90;;;0.70;;
35693;SDS011;21812;55.536;37.664;2024-01-10T00:48:19;0.93;;;0.60;;
35693;SDS011;21812;55.536;37.664;2024-01-10T00:50:45;1.50;;;1.40;;
35693;SDS011;21812;55.536;37.664;2024-01-10T00:53:11;1.07;;;0.90;;
35693;SDS011;21812;55.536;37.664;2024-01-10T00:55:37;0.60;;;0.60;;
35693;SDS011;21812;55.536;37.664;2024-01-10T00:58:03;0.80;;;0.73;;
35693;SDS011;21812;55.536;37.664;2024-01-10T01:00:28;1.30;;;0.70;;
35693;SDS011;21812;55.536;37.664;2024-01-10T01:02:54;1.70;;;0.93;;
35693;SDS011;21812;55.536;37.664;2024-01-10T01:05:20;1.13;;;0.80;;
35693;SDS011;21812;55.536;37.664;2024-01-10T01:07:45;1.03;;;0.60;;
35693;SDS011;21812;55.536;37.664;2024-01-10T01:10:11;0.87;;;0.87;;
35693;SDS011;21812;55.536;37.664;2024-01-10T01:12:37;0.90;;;0.80;;
35693;SDS011;21812;55.536;37.664;2024-01-10T01:15:04;0.87;;;0.63;;
35693;SDS011;21812;55.536;37.664;2024-01-10T01:17:31;1.43;;;0.70;;
35693;SDS011;21812;55.536;37.664;2024-01-10T01:19:57;0.90;;;0.63;;
35693;SDS011;21812;55.536;37.664;2024-01-10T01:22:23;0.47;;;0.40;;
35693;SDS011;21812;55.536;37.664;2024-01-10T01:24:49;0.30;;;0.30;;
35693;SDS011;21812;55.536;37.664;2024-01-10T01:27:15;1.50;;;0.50;;
35693;SDS011;21812;55.536;37.664;2024-01-10T01:29:41;0.43;;;0.40;;
35693;SDS011;21812;55.536;37.664;2024-01-10T01:32:06;2.57;;;0.50;;
35693;SDS011;21812;55.536;37.664;2024-01-10T01:34:32;0.40;;;0.33;;
35693;SDS011;21812;55.536;37.664;2024-01-10T01:36:57;1.00;;;0.40;;
35693;SDS011;21812;55.536;37.664;2024-01-10T01:39:23;1.47;;;0.50;;
35693;SDS011;21812;55.536;37.664;2024-01-10T01:41:49;0.73;;;0.70;;
35693;SDS011;21812;55.536;37.664;2024-01-10T01:44:15;0.70;;;0.60;;
35693;SDS011;21812;55.536;37.664;2024-01-10T01:46:40;0.63;;;0.60;;
35693;SDS011;21812;55.536;37.664;2024-01-10T01:49:06;0.90;;;0.67;;
35693;SDS011;21812;55.536;37.664;2024-01-10T01:51:32;1.90;;;0.80;;
35693;SDS011;21812;55.536;37.664;2024-01-10T01:54:02;0.67;;;0.50;;
35693;SDS011;21812;55.536;37.664;2024-01-10T01:56:32;0.40;;;0.40;;
35693;SDS011;21812;55.536;37.664;2024-01-10T01:58:58;3.27;;;0.60;;
35693;SDS011;21812;55.536;37.664;2024-01-10T02:01:24;0.57;;;0.57;;
35693;SDS011;21812;55.536;37.664;2024-01-10T02:03:50;0.50;;;0.50;;
35693;SDS011;21812;55.536;37.664;2024-01-10T02:06:16;0.40;;;0.40;;
35693;SDS011;21812;55.536;37.664;2024-01-10T02:08:41;3.53;;;0.50;;
35693;SDS011;21812;55.536;37.664;2024-01-10T02:11:07;0.50;;;0.50;;
35693;SDS011;21812;55.536;37.664;2024-01-10T02:13:33;0.43;;;0.40;;
35693;SDS011;21812;55.536;37.664;2024-01-10T02:16:00;1.00;;;0.40;;
35693;SDS011;21812;55.536;37.664;2024-01-10T02:18:26;2.17;;;0.50;;
35693;SDS011;21812;55.536;37.664;2024-01-10T02:20:52;0.60;;;0.50;;
35693;SDS011;21812;55.536;37.664;2024-01-10T02:23:18;0.40;;;0.40;;
35693;SDS011;21812;55.536;37.664;2024-01-10T02:25:44;0.87;;;0.30;;
35693;SDS011;21812;55.536;37.664;2024-01-10T02:28:10;0.30;;;0.30;;
35693;SDS011;21812;55.536;37.664;2024-01-10T02:30:36;1.57;;;1.10;;
35693;SDS011;21812;55.536;37.664;2024-01-10T02:33:02;0.37;;;0.20;;
35693;SDS011;21812;55.536;37.664;2024-01-10T02:35:28;0.40;;;0.30;;
35693;SDS011;21812;55.536;37.664;2024-01-10T02:37:56;0.80;;;0.40;;
35693;SDS011;21812;55.536;37.664;2024-01-10T02:40:21;0.40;;;0.20;;
35693;SDS011;21812;55.536;37.664;2024-01-10T02:42:47;0.40;;;0.10;;
35693;SDS011;21812;55.536;37.664;2024-01-10T02:45:13;0.40;;;0.20;;
35693;SDS011;21812;55.536;37.664;2024-01-10T02:47:38;1.13;;;0.40;;
35693;SDS011;21812;55.536;37.664;2024-01-10T02:50:05;0.10;;;0.10;;
35693;SDS011;21812;55.536;37.664;2024-01-10T02:52:31;0.40;;;0.23;;
35693;SDS011;21812;55.536;37.664;2024-01-10T02:54:57;1.23;;;0.20;;
35693;SDS011;21812;55.536;37.664;2024-01-10T02:57:23;0.50;;;0.30;;
35693;SDS011;21812;55.536;37.664;2024-01-10T02:59:49;0.80;;;0.20;;
35693;SDS011;21812;55.536;37.664;2024-01-10T03:02:14;0.30;;;0.30;;
35693;SDS011;21812;55.536;37.664;2024-01-10T03:04:40;0.40;;;0.20;;
35693;SDS011;21812;55.536;37.664;2024-01-10T03:07:06;0.37;;;0.27;;
35693;SDS011;21812;55.536;37.664;2024-01-10T03:09:32;0.40;;;0.20;;
35693;SDS011;21812;55.536;37.664;2024-01-10T03:11:58;0.53;;;0.30;;
35693;SDS011;21812;55.536;37.664;2024-01-10T03:14:24;0.17;;;0.13;;
35693;SDS011;21812;55.536;37.664;2024-01-10T03:16:49;1.20;;;0.30;;
35693;SDS011;21812;55.536;37.664;2024-01-10T03:19:15;0.00;;;0.00;;
35693;SDS011;21812;55.536;37.664;2024-01-10T03:21:41;0.20;;;0.20;;
35693;SDS011;21812;55.536;37.664;2024-01-10T03:24:07;0.37;;;0.30;;
35693;SDS011;21812;55.536;37.664;2024-01-10T03:26:32;0.20;;;0.20;;
35693;SDS011;21812;55.536;37.664;2024-01-10T03:28:58;0.27;;;0.10;;
35693;SDS011;21812;55.536;37.664;2024-01-10T03:31:24;0.20;;;0.20;;
35693;SDS011;21812;55.536;37.664;2024-01-10T03:33:50;2.13;;;0.87;;
35693;SDS011;21812;55.536;37.664;2024-01-10T03:36:16;0.20;;;0.20;;
35693;SDS011;21812;55.536;37.664;2024-01-10T03:38:43;0.67;;;0.40;;
35693;SDS011;21812;55.536;37.664;2024-01-10T03:41:16;0.30;;;0.10;;
35693;SDS011;21812;55.536;37.664;2024-01-10T03:43:43;0.80;;;0.50;;
35693;SDS011;21812;55.536;37.664;2024-01-10T03:46:09;0.60;;;0.40;;
35693;SDS011;21812;55.536;37.664;2024-01-10T03:48:35;2.90;;;0.70;;
35693;SDS011;21812;55.536;37.664;2024-01-10T03:51:02;1.87;;;0.70;;
35693;SDS011;21812;55.536;37.664;2024-01-10T03:53:28;5.90;;;2.97;;
35693;SDS011;21812;55.536;37.664;2024-01-10T03:55:55;7.50;;;3.67;;
35693;SDS011;21812;55.536;37.664;2024-01-10T03:58:21;7.00;;;3.50;;
35693;SDS011;21812;55.536;37.664;2024-01-10T04:00:49;6.47;;;3.97;;
35693;SDS011;21812;55.536;37.664;2024-01-10T04:03:15;7.10;;;4.07;;
35693;SDS011;21812;55.536;37.664;2024-01-10T04:05:42;7.63;;;4.03;;
35693;SDS011;21812;55.536;37.664;2024-01-10T04:08:07;5.90;;;3.87;;
35693;SDS011;21812;55.536;37.664;2024-01-10T04:10:33;6.47;;;3.50;;
35693;SDS011;21812;55.536;37.664;2024-01-10T04:12:59;8.07;;;4.30;;
35693;SDS011;21812;55.536;37.664;2024-01-10T04:15:24;7.13;;;3.33;;
35693;SDS011;21812;55.536;37.664;2024-01-10T04:17:50;6.13;;;4.10;;
35693;SDS011;21812;55.536;37.664;2024-01-10T04:20:16;6.83;;;4.20;;
35693;SDS011;21812;55.536;37.664;2024-01-10T04:22:42;6.87;;;4.00;;
35693;SDS011;21812;55.536;37.664;2024-01-10T04:25:07;6.83;;;3.87;;
35693;SDS011;21812;55.536;37.664;2024-01-10T04:27:33;7.33;;;4.50;;
35693;SDS011;21812;55.536;37.664;2024-01-10T04:29:59;9.97;;;5.10;;
35693;SDS011;21812;55.536;37.664;2024-01-10T04:32:24;6.37;;;4.20;;
35693;SDS011;21812;55.536;37.664;2024-01-10T04:34:50;7.07;;;4.63;;
35693;SDS011;21812;55.536;37.664;2024-01-10T04:37:16;8.70;;;4.33;;
35693;SDS011;21812;55.536;37.664;2024-01-10T04:39:42;8.37;;;3.67;;
35693;SDS011;21812;55.536;37.664;2024-01-10T04:42:08;7.03;;;4.23;;
35693;SDS011;21812;55.536;37.664;2024-01-10T04:44:36;7.87;;;4.83;;
35693;SDS011;21812;55.536;37.664;2024-01-10T04:47:02;9.20;;;3.60;;
35693;SDS011;21812;55.536;37.664;2024-01-10T04:49:28;6.10;;;3.47;;
35693;SDS011;21812;55.536;37.664;2024-01-10T04:51:54;8.53;;;4.27;;
35693;SDS011;21812;55.536;37.664;2024-01-10T04:54:19;6.53;;;4.07;;
35693;SDS011;21812;55.536;37.664;2024-01-10T04:56:45;9.97;;;4.43;;
35693;SDS011;21812;55.536;37.664;2024-01-10T04:59:11;6.53;;;4.63;;
35693;SDS011;21812;55.536;37.664;2024-01-10T05:01:37;7.23;;;3.87;;
35693;SDS011;21812;55.536;37.664;2024-01-10T05:04:03;6.77;;;4.43;;
35693;SDS011;21812;55.536;37.664;2024-01-10T05:06:29;5.47;;;3.80;;
35693;SDS011;21812;55.536;37.664;2024-01-10T05:08:55;7.27;;;4.43;;
35693;SDS011;21812;55.536;37.664;2024-01-10T05:11:24;7.73;;;3.83;;
35693;SDS011;21812;55.536;37.664;2024-01-10T05:13:53;6.43;;;3.27;;
35693;SDS011;21812;55.536;37.664;2024-01-10T05:16:19;6.30;;;3.87;;
35693;SDS011;21812;55.536;37.664;2024-01-10T05:18:45;5.13;;;3.13;;
35693;SDS011;21812;55.536;37.664;2024-01-10T05:21:12;7.30;;;4.77;;
35693;SDS011;21812;55.536;37.664;2024-01-10T05:23:37;5.00;;;3.30;;
35693;SDS011;21812;55.536;37.664;2024-01-10T05:26:06;4.67;;;3.37;;
35693;SDS011;21812;55.536;37.664;2024-01-10T05:28:32;4.87;;;2.97;;
35693;SDS011;21812;55.536;37.664;2024-01-10T05:30:58;7.43;;;3.30;;
35693;SDS011;21812;55.536;37.664;2024-01-10T05:33:24;6.20;;;3.90;;
35693;SDS011;21812;55.536;37.664;2024-01-10T05:35:50;6.50;;;4.10;;
35693;SDS011;21812;55.536;37.664;2024-01-10T05:38:16;6.73;;;3.87;;
35693;SDS011;21812;55.536;37.664;2024-01-10T05:40:42;6.33;;;4.17;;
35693;SDS011;21812;55.536;37.664;2024-01-10T05:43:07;7.70;;;3.90;;
35693;SDS011;21812;55.536;37.664;2024-01-10T05:45:35;6.87;;;3.87;;
35693;SDS011;21812;55.536;37.664;2024-01-10T05:48:01;7.50;;;4.03;;
35693;SDS011;21812;55.536;37.664;2024-01-10T05:50:27;6.33;;;3.73;;
35693;SDS011;21812;55.536;37.664;2024-01-10T05:52:53;5.53;;;3.33;;
35693;SDS011;21812;55.536;37.664;2024-01-10T05:55:18;7.90;;;3.77;;
35693;SDS011;21812;55.536;37.664;2024-01-10T05:57:44;5.63;;;3.07;;
35693;SDS011;21812;55.536;37.664;2024-01-10T06:00:10;7.03;;;3.80;;
35693;SDS011;21812;55.536;37.664;2024-01-10T06:02:37;6.57;;;4.07;;
35693;SDS011;21812;55.536;37.664;2024-01-10T06:05:07;5.70;;;3.20;;
35693;SDS011;21812;55.536;37.664;2024-01-10T06:07:34;6.77;;;3.27;;
35693;SDS011;21812;55.536;37.664;2024-01-10T06:10:01;5.90;;;3.70;;
35693;SDS011;21812;55.536;37.664;2024-01-10T06:12:28;8.17;;;3.90;;
35693;SDS011;21812;55.536;37.664;2024-01-10T06:14:54;5.20;;;3.33;;
35693;SDS011;21812;55.536;37.664;2024-01-10T06:17:20;5.57;;;4.83;;
35693;SDS011;21812;55.536;37.664;2024-01-10T06:19:46;3.70;;;2.80;;
35693;SDS011;21812;55.536;37.664;2024-01-10T06:22:12;9.13;;;5.70;;
35693;SDS011;21812;55.536;37.664;2024-01-10T06:24:38;6.87;;;3.07;;
35693;SDS011;21812;55.536;37.664;2024-01-10T06:27:04;10.77;;;4.30;;
35693;SDS011;21812;55.536;37.664;2024-01-10T06:29:31;6.70;;;4.00;;
35693;SDS011;21812;55.536;37.664;2024-01-10T06:31:58;5.67;;;3.90;;
35693;SDS011;21812;55.536;37.664;2024-01-10T06:34:24;7.83;;;4.13;;
35693;SDS011;21812;55.536;37.664;2024-01-10T06:36:49;6.90;;;3.77;;
35693;SDS011;21812;55.536;37.664;2024-01-10T06:39:15;7.97;;;5.80;;
35693;SDS011;21812;55.536;37.664;2024-01-10T06:41:44;6.23;;;4.37;;
35693;SDS011;21812;55.536;37.664;2024-01-10T06:44:09;7.63;;;4.47;;
35693;SDS011;21812;55.536;37.664;2024-01-10T06:46:35;4.67;;;3.17;;
35693;SDS011;21812;55.536;37.664;2024-01-10T06:49:01;5.27;;;3.70;;
35693;SDS011;21812;55.536;37.664;2024-01-10T06:51:27;8.03;;;3.30;;
35693;SDS011;21812;55.536;37.664;2024-01-10T06:53:52;6.67;;;3.90;;
35693;SDS011;21812;55.536;37.664;2024-01-10T06:56:18;8.97;;;3.47;;
35693;SDS011;21812;55.536;37.664;2024-01-10T06:58:44;8.00;;;3.30;;
35693;SDS011;21812;55.536;37.664;2024-01-10T07:01:13;7.00;;;4.00;;
35693;SDS011;21812;55.536;37.664;2024-01-10T07:03:39;6.23;;;3.70;;
35693;SDS011;21812;55.536;37.664;2024-01-10T07:06:05;5.60;;;3.47;;
35693;SDS011;21812;55.536;37.664;2024-01-10T07:08:31;5.50;;;3.33;;
35693;SDS011;21812;55.536;37.664;2024-01-10T07:10:57;6.47;;;4.03;;
35693;SDS011;21812;55.536;37.664;2024-01-10T07:13:23;5.47;;;3.73;;
35693;SDS011;21812;55.536;37.664;2024-01-10T07:15:49;7.03;;;4.70;;
35693;SDS011;21812;55.536;37.664;2024-01-10T07:18:16;4.77;;;3.53;;
35693;SDS011;21812;55.536;37.664;2024-01-10T07:20:42;6.53;;;4.03;;
35693;SDS011;21812;55.536;37.664;2024-01-10T07:23:08;5.73;;;3.40;;
35693;SDS011;21812;55.536;37.664;2024-01-10T07:25:33;8.17;;;3.37;;
35693;SDS011;21812;55.536;37.664;2024-01-10T07:27:59;5.43;;;3.20;;
35693;SDS011;21812;55.536;37.664;2024-01-10T07:30:26;6.57;;;3.30;;
35693;SDS011;21812;55.536;37.664;2024-01-10T07:32:51;7.17;;;4.10;;
35693;SDS011;21812;55.536;37.664;2024-01-10T07:35:17;4.77;;;3.57;;
35693;SDS011;21812;55.536;37.664;2024-01-10T07:37:43;7.33;;;3.43;;
35693;SDS011;21812;55.536;37.664;2024-01-10T07:40:09;4.27;;;2.83;;
35693;SDS011;21812;55.536;37.664;2024-01-10T07:42:36;5.30;;;3.80;;
35693;SDS011;21812;55.536;37.664;2024-01-10T07:45:03;7.53;;;3.27;;
35693;SDS011;21812;55.536;37.664;2024-01-10T07:47:31;5.37;;;3.07;;
35693;SDS011;21812;55.536;37.664;2024-01-10T07:49:59;8.87;;;3.47;;
35693;SDS011;21812;55.536;37.664;2024-01-10T07:52:25;7.73;;;3.60;;
35693;SDS011;21812;55.536;37.664;2024-01-10T07:54:51;5.53;;;3.60;;
35693;SDS011;21812;55.536;37.664;2024-01-10T07:57:17;5.50;;;3.30;;
35693;SDS011;21812;55.536;37.664;2024-01-10T07:59:44;7.43;;;3.37;;
35693;SDS011;21812;55.536;37.664;2024-01-10T08:02:10;5.13;;;3.00;;
35693;SDS011;21812;55.536;37.664;2024-01-10T08:04:37;7.77;;;3.37;;
35693;SDS011;21812;55.536;37.664;2024-01-10T08:07:03;7.77;;;3.40;;
35693;SDS011;21812;55.536;37.664;2024-01-10T08:09:29;6.50;;;3.40;;
35693;SDS011;21812;55.536;37.664;2024-01-10T08:11:54;6.87;;;3.13;;
35693;SDS011;21812;55.536;37.664;2024-01-10T08:14:20;5.50;;;3.10;;
35693;SDS011;21812;55.536;37.664;2024-01-10T08:16:46;5.27;;;3.30;;
35693;SDS011;21812;55.536;37.664;2024-01-10T08:19:11;5.77;;;3.47;;
35693;SDS011;21812;55.536;37.664;2024-01-10T08:21:37;6.60;;;3.40;;
35693;SDS011;21812;55.536;37.664;2024-01-10T08:24:03;4.60;;;2.63;;
35693;SDS011;21812;55.536;37.664;2024-01-10T08:26:30;6.43;;;3.27;;
35693;SDS011;21812;55.536;37.664;2024-01-10T08:28:55;5.27;;;3.73;;
35693;SDS011;21812;55.536;37.664;2024-01-10T08:31:21;8.53;;;3.67;;
35693;SDS011;21812;55.536;37.664;2024-01-10T08:33:48;7.43;;;3.80;;
35693;SDS011;21812;55.536;37.664;2024-01-10T08:36:14;6.87;;;3.50;;
35693;SDS011;21812;55.536;37.664;2024-01-10T08:38:40;6.00;;;3.30;;
35693;SDS011;21812;55.536;37.664;2024-01-10T08:41:09;6.47;;;3.80;;
35693;SDS011;21812;55.536;37.664;2024-01-10T08:43:37;7.47;;;3.80;;
35693;SDS011;21812;55.536;37.664;2024-01-10T08:46:03;6.70;;;3.53;;
35693;SDS011;21812;55.536;37.664;2024-01-10T08:48:29;3.93;;;2.93;;
35693;SDS011;21812;55.536;37.664;2024-01-10T08:50:55;4.07;;;2.90;;
35693;SDS011;21812;55.536;37.664;2024-01-10T08:53:21;5.97;;;3.40;;
35693;SDS011;21812;55.536;37.664;2024-01-10T08:55:48;5.57;;;3.13;;
35693;SDS011;21812;55.536;37.664;2024-01-10T08:58:14;4.70;;;2.77;;
35693;SDS011;21812;55.536;37.664;2024-01-10T09:00:39;7.43;;;3.13;;
35693;SDS011;21812;55.536;37.664;2024-01-10T09:03:05;6.57;;;3.80;;
35693;SDS011;21812;55.536;37.664;2024-01-10T09:05:32;4.50;;;2.67;;
35693;SDS011;21812;55.536;37.664;2024-01-10T09:07:58;5.10;;;2.93;;
35693;SDS011;21812;55.536;37.664;2024-01-10T09:10:24;6.03;;;3.33;;
35693;SDS011;21812;55.536;37.664;2024-01-10T09:12:53;4.73;;;3.03;;
35693;SDS011;21812;55.536;37.664;2024-01-10T09:15:19;6.07;;;2.57;;
35693;SDS011;21812;55.536;37.664;2024-01-10T09:17:45;5.80;;;2.80;;
35693;SDS011;21812;55.536;37.664;2024-01-10T09:20:11;8.27;;;3.20;;
35693;SDS011;21812;55.536;37.664;2024-01-10T09:22:38;4.40;;;2.90;;
35693;SDS011;21812;55.536;37.664;2024-01-10T09:25:05;6.50;;;3.30;;
35693;SDS011;21812;55.536;37.664;2024-01-10T09:27:31;5.17;;;3.07;;
35693;SDS011;21812;55.536;37.664;2024-01-10T09:29:59;4.17;;;3.03;;
35693;SDS011;21812;55.536;37.664;2024-01-10T09:32:31;4.20;;;2.90;;
35693;SDS011;21812;55.536;37.664;2024-01-10T09:34:57;6.20;;;3.13;;
35693;SDS011;21812;55.536;37.664;2024-01-10T09:37:23;5.37;;;3.47;;
35693;SDS011;21812;55.536;37.664;2024-01-10T09:39:49;6.00;;;3.20;;
35693;SDS011;21812;55.536;37.664;2024-01-10T09:42:15;7.40;;;3.23;;
35693;SDS011;21812;55.536;37.664;2024-01-10T09:44:41;4.67;;;3.30;;
35693;SDS011;21812;55.536;37.664;2024-01-10T09:47:07;7.63;;;3.17;;
35693;SDS011;21812;55.536;37.664;2024-01-10T09:49:34;8.23;;;3.63;;
35693;SDS011;21812;55.536;37.664;2024-01-10T09:52:02;4.27;;;2.80;;
35693;SDS011;21812;55.536;37.664;2024-01-10T09:54:30;5.53;;;3.30;;
35693;SDS011;21812;55.536;37.664;2024-01-10T09:56:59;10.37;;;4.03;;
35693;SDS011;21812;55.536;37.664;2024-01-10T09:59:25;6.63;;;2.80;;
35693;SDS011;21812;55.536;37.664;2024-01-10T10:01:51;4.37;;;3.47;;
35693;SDS011;21812;55.536;37.664;2024-01-10T10:04:19;6.73;;;3.23;;
35693;SDS011;21812;55.536;37.664;2024-01-10T10:06:46;6.70;;;3.17;;
35693;SDS011;21812;55.536;37.664;2024-01-10T10:09:11;8.20;;;3.77;;
35693;SDS011;21812;55.536;37.664;2024-01-10T10:11:37;7.47;;;3.40;;
35693;SDS011;21812;55.536;37.664;2024-01-10T10:14:15;7.97;;;4.03;;
35693;SDS011;21812;55.536;37.664;2024-01-10T10:16:43;5.03;;;4.00;;
35693;SDS011;21812;55.536;37.664;2024-01-10T10:19:09;10.57;;;4.13;;
35693;SDS011;21812;55.536;37.664;2024-01-10T10:21:37;9.20;;;3.80;;
35693;SDS011;21812;55.536;37.664;2024-01-10T10:24:03;5.57;;;3.07;;
35693;SDS011;21812;55.536;37.664;2024-01-10T10:26:31;4.43;;;3.17;;
35693;SDS011;21812;55.536;37.664;2024-01-10T10:28:58;4.97;;;3.33;;
35693;SDS011;21812;55.536;37.664;2024-01-10T10:31:24;10.83;;;4.10;;
35693;SDS011;21812;55.536;37.664;2024-01-10T10:33:51;6.53;;;4.50;;
35693;SDS011;21812;55.536;37.664;2024-01-10T10:36:21;6.80;;;4.00;;
35693;SDS011;21812;55.536;37.664;2024-01-10T10:38:47;10.40;;;4.43;;
35693;SDS011;21812;55.536;37.664;2024-01-10T10:41:16;7.23;;;4.37;;
35693;SDS011;21812;55.536;37.664;2024-01-10T10:43:44;10.77;;;4.47;;
35693;SDS011;21812;55.536;37.664;2024-01-10T10:46:10;10.53;;;4.70;;
35693;SDS011;21812;55.536;37.664;2024-01-10T10:48:40;6.63;;;3.90;;
35693;SDS011;21812;55.536;37.664;2024-01-10T10:51:10;8.27;;;4.93;;
35693;SDS011;21812;55.536;37.664;2024-01-10T10:53:37;7.43;;;4.47;;
35693;SDS011;21812;55.536;37.664;2024-01-10T10:56:06;7.27;;;4.33;;
35693;SDS011;21812;55.536;37.664;2024-01-10T10:58:34;6.87;;;4.27;;
35693;SDS011;21812;55.536;37.664;2024-01-10T11:01:06;13.17;;;5.57;;
35693;SDS011;21812;55.536;37.664;2024-01-10T11:03:36;8.70;;;4.40;;
35693;SDS011;21812;55.536;37.664;2024-01-10T11:06:05;12.20;;;6.13;;
35693;SDS011;21812;55.536;37.664;2024-01-10T11:22:21;8.32;;;5.03;;
35693;SDS011;21812;55.536;37.664;2024-01-10T11:25:10;11.00;;;4.40;;
35693;SDS011;21812;55.536;37.664;2024-01-10T11:27:37;8.53;;;4.00;;
35693;SDS011;21812;55.536;37.664;2024-01-10T11:30:02;8.27;;;5.37;;
35693;SDS011;21812;55.536;37.664;2024-01-10T11:32:31;7.40;;;4.67;;
35693;SDS011;21812;55.536;37.664;2024-01-10T11:34:59;7.43;;;4.33;;
35693;SDS011;21812;55.536;37.664;2024-01-10T11:37:44;9.47;;;4.40;;
35693;SDS011;21812;55.536;37.664;2024-01-10T11:40:11;9.77;;;4.60;;
35693;SDS011;21812;55.536;37.664;2024-01-10T11:42:41;8.80;;;5.30;;
35693;SDS011;21812;55.536;37.664;2024-01-10T11:50:21;8.87;;;5.07;;
35693;SDS011;21812;55.536;37.664;2024-01-10T11:52:52;6.10;;;4.17;;
35693;SDS011;21812;55.536;37.664;2024-01-10T11:58:13;12.73;;;6.18;;
35693;SDS011;21812;55.536;37.664;2024-01-10T12:00:40;9.53;;;4.47;;
35693;SDS011;21812;55.536;37.664;2024-01-10T12:03:06;8.43;;;4.33;;
35693;SDS011;21812;55.536;37.664;2024-01-10T12:05:34;10.17;;;4.83;;
35693;SDS011;21812;55.536;37.664;2024-01-10T12:08:00;8.77;;;5.10;;
35693;SDS011;21812;55.536;37.664;2024-01-10T12:10:26;9.70;;;4.53;;
35693;SDS011;21812;55.536;37.664;2024-01-10T12:12:52;10.03;;;5.33;;
35693;SDS011;21812;55.536;37.664;2024-01-10T12:15:20;7.27;;;4.80;;
35693;SDS011;21812;55.536;37.664;2024-01-10T12:17:47;9.90;;;5.50;;
35693;SDS011;21812;55.536;37.664;2024-01-10T12:20:12;13.33;;;6.10;;
35693;SDS011;21812;55.536;37.664;2024-01-10T12:22:38;9.00;;;5.23;;
35693;SDS011;21812;55.536;37.664;2024-01-10T12:25:04;7.87;;;5.90;;
35693;SDS011;21812;55.536;37.664;2024-01-10T12:27:30;11.30;;;5.20;;
35693;SDS011;21812;55.536;37.664;2024-01-10T12:29:56;8.50;;;5.07;;
35693;SDS011;21812;55.536;37.664;2024-01-10T12:32:23;7.97;;;4.97;;
35693;SDS011;21812;55.536;37.664;2024-01-10T12:34:49;8.53;;;5.20;;
35693;SDS011;21812;55.536;37.664;2024-01-10T12:37:20;7.87;;;5.40;;
35693;SDS011;21812;55.536;37.664;2024-01-10T12:39:46;9.43;;;6.33;;
35693;SDS011;21812;55.536;37.664;2024-01-10T12:42:11;12.73;;;6.60;;
35693;SDS011;21812;55.536;37.664;2024-01-10T12:44:37;9.87;;;6.07;;
35693;SDS011;21812;55.536;37.664;2024-01-10T12:47:03;14.80;;;5.87;;
35693;SDS011;21812;55.536;37.664;2024-01-10T12:49:29;12.53;;;6.00;;
35693;SDS011;21812;55.536;37.664;2024-01-10T12:51:55;11.73;;;6.20;;
35693;SDS011;21812;55.536;37.664;2024-01-10T12:54:20;11.03;;;5.67;;
35693;SDS011;21812;55.536;37.664;2024-01-10T12:56:46;7.37;;;4.87;;
35693;SDS011;21812;55.536;37.664;2024-01-10T12:59:12;8.90;;;5.53;;
35693;SDS011;21812;55.536;37.664;2024-01-10T13:01:38;6.27;;;4.83;;
35693;SDS011;21812;55.536;37.664;2024-01-10T13:04:04;6.50;;;4.60;;
35693;SDS011;21812;55.536;37.664;2024-01-10T13:06:30;7.23;;;5.23;;
35693;SDS011;21812;55.536;37.664;2024-01-10T13:08:56;8.13;;;5.17;;
35693;SDS011;21812;55.536;37.664;2024-01-10T13:11:22;10.47;;;4.70;;
35693;SDS011;21812;55.536;37.664;2024-01-10T13:13:48;8.70;;;4.73;;
35693;SDS011;21812;55.536;37.664;2024-01-10T13:16:13;7.60;;;3.77;;
35693;SDS011;21812;55.536;37.664;2024-01-10T13:18:39;8.60;;;4.10;;
35693;SDS011;21812;55.536;37.664;2024-01-10T13:21:05;9.73;;;4.30;;
35693;SDS011;21812;55.536;37.664;2024-01-10T13:23:31;8.80;;;4.00;;
35693;SDS011;21812;55.536;37.664;2024-01-10T13:25:58;8.17;;;4.77;;
35693;SDS011;21812;55.536;37.664;2024-01-10T13:28:24;9.77;;;5.57;;
35693;SDS011;21812;55.536;37.664;2024-01-10T13:30:53;13.03;;;5.17;;
35693;SDS011;21812;55.536;37.664;2024-01-10T13:33:21;6.80;;;5.20;;
35693;SDS011;21812;55.536;37.664;2024-01-10T13:35:47;8.13;;;5.37;;
35693;SDS011;21812;55.536;37.664;2024-01-10T13:38:14;12.07;;;5.03;;
35693;SDS011;21812;55.536;37.664;2024-01-10T13:40:40;10.77;;;6.20;;
35693;SDS011;21812;55.536;37.664;2024-01-10T13:43:06;18.17;;;8.63;;
35693;SDS011;21812;55.536;37.664;2024-01-10T13:45:32;15.83;;;8.03;;
35693;SDS011;21812;55.536;37.664;2024-01-10T13:47:58;11.90;;;6.83;;
35693;SDS011;21812;55.536;37.664;2024-01-10T13:50:25;11.97;;;6.77;;
35693;SDS011;21812;55.536;37.664;2024-01-10T13:52:52;11.37;;;4.80;;
35693;SDS011;21812;55.536;37.664;2024-01-10T13:55:19;9.60;;;5.20;;
35693;SDS011;21812;55.536;37.664;2024-01-10T13:57:45;10.37;;;5.80;;
35693;SDS011;21812;55.536;37.664;2024-01-10T14:00:11;13.53;;;6.10;;
35693;SDS011;21812;55.536;37.664;2024-01-10T14:02:43;15.13;;;5.80;;
35693;SDS011;21812;55.536;37.664;2024-01-10T14:05:09;8.90;;;5.43;;
35693;SDS011;21812;55.536;37.664;2024-01-10T14:07:36;13.43;;;6.33;;
35693;SDS011;21812;55.536;37.664;2024-01-10T14:10:03;11.37;;;6.67;;
35693;SDS011;21812;55.536;37.664;2024-01-10T14:12:29;7.40;;;4.67;;
35693;SDS011;21812;55.536;37.664;2024-01-10T14:14:55;11.97;;;6.20;;
35693;SDS011;21812;55.536;37.664;2024-01-10T14:17:22;9.10;;;4.83;;
35693;SDS011;21812;55.536;37.664;2024-01-10T14:19:48;7.67;;;4.40;;
35693;SDS011;21812;55.536;37.664;2024-01-10T14:22:16;7.53;;;4.83;;
35693;SDS011;21812;55.536;37.664;2024-01-10T14:24:43;10.13;;;4.57;;
35693;SDS011;21812;55.536;37.664;2024-01-10T14:27:09;7.17;;;4.63;;
35693;SDS011;21812;55.536;37.664;2024-01-10T14:29:35;9.37;;;5.00;;
35693;SDS011;21812;55.536;37.664;2024-01-10T14:32:01;11.23;;;6.30;;
35693;SDS011;21812;55.536;37.664;2024-01-10T14:34:27;11.53;;;6.90;;
35693;SDS011;21812;55.536;37.664;2024-01-10T14:36:52;10.50;;;6.37;;
35693;SDS011;21812;55.536;37.664;2024-01-10T14:39:18;11.33;;;5.60;;
35693;SDS011;21812;55.536;37.664;2024-01-10T14:41:44;16.33;;;7.73;;
35693;SDS011;21812;55.536;37.664;2024-01-10T14:44:10;9.67;;;5.00;;
35693;SDS011;21812;55.536;37.664;2024-01-10T14:46:35;11.03;;;6.00;;
35693;SDS011;21812;55.536;37.664;2024-01-10T14:49:01;12.03;;;6.13;;
35693;SDS011;21812;55.536;37.664;2024-01-10T14:51:27;9.87;;;5.47;;